sensor_id;sensor_type;location;lat;lon;timestamp;P1;durP1;ratioP1;P2;durP2;ratioP2
44728;SDS011;30457;53.590;9.922;2022-11-20T00:02:10;62.55;;;59.25;;
44728;SDS011;30457;53.590;9.922;2022-11-20T00:06:36;59.88;;;56.67;;
44728;SDS011;30457;53.590;9.922;2022-11-20T00:11:02;58.78;;;55.72;;
44728;SDS011;30457;53.590;9.922;2022-11-20T00:15:31;61.33;;;58.05;;
44728;SDS011;30457;53.590;9.922;2022-11-20T00:19:57;59.65;;;56.60;;
44728;SDS011;30457;53.590;9.922;2022-11-20T00:24:23;65.78;;;62.13;;
44728;SDS011;30457;53.590;9.922;2022-11-20T00:28:56;62.58;;;59.15;;
44728;SDS011;30457;53.590;9.922;2022-11-20T00:33:23;54.80;;;51.83;;
44728;SDS011;30457;53.590;9.922;2022-11-20T00:37:48;58.55;;;55.53;;
44728;SDS011;30457;53.590;9.922;2022-11-20T00:42:14;56.20;;;53.15;;
44728;SDS011;30457;53.590;9.922;2022-11-20T00:46:39;63.80;;;60.40;;
44728;SDS011;30457;53.590;9.922;2022-11-20T00:51:05;59.17;;;56.10;;
44728;SDS011;30457;53.590;9.922;2022-11-20T00:55:31;58.42;;;55.38;;
44728;SDS011;30457;53.590;9.922;2022-11-20T00:59:56;57.45;;;54.50;;
44728;SDS011;30457;53.590;9.922;2022-11-20T01:04:22;55.33;;;52.45;;
44728;SDS011;30457;53.590;9.922;2022-11-20T01:08:48;64.18;;;60.75;;
44728;SDS011;30457;53.590;9.922;2022-11-20T01:13:14;58.72;;;55.70;;
44728;SDS011;30457;53.590;9.922;2022-11-20T01:17:59;64.45;;;61.05;;
44728;SDS011;30457;53.590;9.922;2022-11-20T01:22:24;64.30;;;60.97;;
44728;SDS011;30457;53.590;9.922;2022-11-20T01:26:50;66.80;;;62.90;;
44728;SDS011;30457;53.590;9.922;2022-11-20T01:35:46;65.88;;;62.08;;
44728;SDS011;30457;53.590;9.922;2022-11-20T01:40:12;70.47;;;66.85;;
44728;SDS011;30457;53.590;9.922;2022-11-20T01:44:49;66.65;;;62.95;;
44728;SDS011;30457;53.590;9.922;2022-11-20T01:49:17;67.35;;;63.80;;
44728;SDS011;30457;53.590;9.922;2022-11-20T01:53:49;65.65;;;62.20;;
44728;SDS011;30457;53.590;9.922;2022-11-20T01:58:16;65.47;;;62.13;;
44728;SDS011;30457;53.590;9.922;2022-11-20T02:02:51;63.88;;;60.45;;
44728;SDS011;30457;53.590;9.922;2022-11-20T02:07:20;66.05;;;62.63;;
44728;SDS011;30457;53.590;9.922;2022-11-20T02:11:47;65.13;;;61.65;;
44728;SDS011;30457;53.590;9.922;2022-11-20T02:16:24;66.22;;;62.80;;
44728;SDS011;30457;53.590;9.922;2022-11-20T02:21:09;64.30;;;60.95;;
44728;SDS011;30457;53.590;9.922;2022-11-20T02:25:43;61.95;;;58.72;;
44728;SDS011;30457;53.590;9.922;2022-11-20T02:30:12;63.85;;;60.65;;
44728;SDS011;30457;53.590;9.922;2022-11-20T02:34:38;64.97;;;61.63;;
44728;SDS011;30457;53.590;9.922;2022-11-20T02:39:04;62.20;;;58.90;;
44728;SDS011;30457;53.590;9.922;2022-11-20T02:43:30;63.13;;;59.60;;
44728;SDS011;30457;53.590;9.922;2022-11-20T02:47:56;64.97;;;61.65;;
44728;SDS011;30457;53.590;9.922;2022-11-20T02:52:21;66.20;;;62.83;;
44728;SDS011;30457;53.590;9.922;2022-11-20T02:56:47;59.88;;;56.83;;
44728;SDS011;30457;53.590;9.922;2022-11-20T03:01:13;67.90;;;64.00;;
44728;SDS011;30457;53.590;9.922;2022-11-20T03:05:39;66.40;;;63.03;;
44728;SDS011;30457;53.590;9.922;2022-11-20T03:10:04;69.75;;;65.95;;
44728;SDS011;30457;53.590;9.922;2022-11-20T03:14:31;65.93;;;62.25;;
44728;SDS011;30457;53.590;9.922;2022-11-20T03:18:56;59.78;;;56.47;;
44728;SDS011;30457;53.590;9.922;2022-11-20T03:23:22;64.88;;;61.38;;
44728;SDS011;30457;53.590;9.922;2022-11-20T03:27:47;68.18;;;64.47;;
44728;SDS011;30457;53.590;9.922;2022-11-20T03:32:13;67.50;;;64.10;;
44728;SDS011;30457;53.590;9.922;2022-11-20T03:36:40;61.88;;;58.50;;
44728;SDS011;30457;53.590;9.922;2022-11-20T03:41:08;66.82;;;63.17;;
44728;SDS011;30457;53.590;9.922;2022-11-20T03:45:38;65.05;;;61.35;;
44728;SDS011;30457;53.590;9.922;2022-11-20T03:50:03;62.75;;;59.58;;
44728;SDS011;30457;53.590;9.922;2022-11-20T03:54:30;66.57;;;63.15;;
44728;SDS011;30457;53.590;9.922;2022-11-20T03:58:55;68.45;;;64.88;;
44728;SDS011;30457;53.590;9.922;2022-11-20T04:03:21;60.95;;;57.85;;
44728;SDS011;30457;53.590;9.922;2022-11-20T04:07:46;63.08;;;59.45;;
44728;SDS011;30457;53.590;9.922;2022-11-20T04:12:12;61.60;;;58.30;;
44728;SDS011;30457;53.590;9.922;2022-11-20T04:16:37;61.95;;;58.55;;
44728;SDS011;30457;53.590;9.922;2022-11-20T04:21:03;64.45;;;61.08;;
44728;SDS011;30457;53.590;9.922;2022-11-20T04:25:30;64.25;;;60.80;;
44728;SDS011;30457;53.590;9.922;2022-11-20T04:29:55;68.20;;;64.70;;
44728;SDS011;30457;53.590;9.922;2022-11-20T04:34:21;62.35;;;59.10;;
44728;SDS011;30457;53.590;9.922;2022-11-20T04:38:50;63.00;;;59.58;;
44728;SDS011;30457;53.590;9.922;2022-11-20T04:43:16;66.97;;;63.53;;
44728;SDS011;30457;53.590;9.922;2022-11-20T04:47:42;61.10;;;57.90;;
44728;SDS011;30457;53.590;9.922;2022-11-20T04:52:07;61.25;;;58.05;;
44728;SDS011;30457;53.590;9.922;2022-11-20T04:56:33;60.88;;;57.75;;
44728;SDS011;30457;53.590;9.922;2022-11-20T05:01:00;62.65;;;59.42;;
44728;SDS011;30457;53.590;9.922;2022-11-20T05:05:27;63.97;;;60.75;;
44728;SDS011;30457;53.590;9.922;2022-11-20T05:09:53;62.65;;;59.33;;
44728;SDS011;30457;53.590;9.922;2022-11-20T05:14:18;63.47;;;60.22;;
44728;SDS011;30457;53.590;9.922;2022-11-20T05:18:44;61.47;;;58.10;;
44728;SDS011;30457;53.590;9.922;2022-11-20T05:23:10;62.40;;;59.00;;
44728;SDS011;30457;53.590;9.922;2022-11-20T05:27:36;69.00;;;65.40;;
44728;SDS011;30457;53.590;9.922;2022-11-20T05:32:01;65.40;;;61.88;;
44728;SDS011;30457;53.590;9.922;2022-11-20T05:36:27;63.47;;;60.08;;
44728;SDS011;30457;53.590;9.922;2022-11-20T05:40:52;63.70;;;60.35;;
44728;SDS011;30457;53.590;9.922;2022-11-20T05:45:18;60.00;;;56.88;;
44728;SDS011;30457;53.590;9.922;2022-11-20T05:49:44;66.75;;;63.25;;
44728;SDS011;30457;53.590;9.922;2022-11-20T05:54:09;63.65;;;60.40;;
44728;SDS011;30457;53.590;9.922;2022-11-20T05:58:35;62.13;;;58.83;;
44728;SDS011;30457;53.590;9.922;2022-11-20T06:03:01;65.88;;;62.20;;
44728;SDS011;30457;53.590;9.922;2022-11-20T06:07:27;63.78;;;60.30;;
44728;SDS011;30457;53.590;9.922;2022-11-20T06:11:53;65.40;;;61.90;;
44728;SDS011;30457;53.590;9.922;2022-11-20T06:16:19;63.58;;;60.10;;
44728;SDS011;30457;53.590;9.922;2022-11-20T06:20:45;62.97;;;59.35;;
44728;SDS011;30457;53.590;9.922;2022-11-20T06:25:11;64.38;;;60.80;;
44728;SDS011;30457;53.590;9.922;2022-11-20T06:29:37;66.25;;;62.63;;
44728;SDS011;30457;53.590;9.922;2022-11-20T06:34:03;61.22;;;57.90;;
44728;SDS011;30457;53.590;9.922;2022-11-20T06:38:30;60.70;;;57.55;;
44728;SDS011;30457;53.590;9.922;2022-11-20T06:42:56;64.40;;;60.95;;
44728;SDS011;30457;53.590;9.922;2022-11-20T06:47:22;61.00;;;57.78;;
44728;SDS011;30457;53.590;9.922;2022-11-20T06:51:47;65.25;;;61.83;;
44728;SDS011;30457;53.590;9.922;2022-11-20T06:56:13;59.03;;;55.90;;
44728;SDS011;30457;53.590;9.922;2022-11-20T07:00:40;63.60;;;60.25;;
44728;SDS011;30457;53.590;9.922;2022-11-20T07:05:06;64.38;;;60.88;;
44728;SDS011;30457;53.590;9.922;2022-11-20T07:09:32;60.75;;;57.33;;
44728;SDS011;30457;53.590;9.922;2022-11-20T07:13:58;60.92;;;57.42;;
44728;SDS011;30457;53.590;9.922;2022-11-20T07:18:24;58.78;;;55.67;;
44728;SDS011;30457;53.590;9.922;2022-11-20T07:22:55;65.35;;;61.95;;
44728;SDS011;30457;53.590;9.922;2022-11-20T07:27:22;64.80;;;61.35;;
44728;SDS011;30457;53.590;9.922;2022-11-20T07:31:48;60.03;;;56.83;;
44728;SDS011;30457;53.590;9.922;2022-11-20T07:36:13;64.38;;;60.95;;
44728;SDS011;30457;53.590;9.922;2022-11-20T07:40:39;65.63;;;62.13;;
44728;SDS011;30457;53.590;9.922;2022-11-20T07:45:05;66.72;;;63.13;;
44728;SDS011;30457;53.590;9.922;2022-11-20T07:49:31;64.97;;;61.63;;
44728;SDS011;30457;53.590;9.922;2022-11-20T07:53:56;62.40;;;59.08;;
44728;SDS011;30457;53.590;9.922;2022-11-20T07:58:22;62.67;;;59.25;;
44728;SDS011;30457;53.590;9.922;2022-11-20T08:02:48;63.50;;;60.22;;
44728;SDS011;30457;53.590;9.922;2022-11-20T08:07:13;64.63;;;61.13;;
44728;SDS011;30457;53.590;9.922;2022-11-20T08:11:39;66.93;;;63.13;;
44728;SDS011;30457;53.590;9.922;2022-11-20T08:16:23;61.72;;;58.30;;
44728;SDS011;30457;53.590;9.922;2022-11-20T08:20:49;66.45;;;62.95;;
44728;SDS011;30457;53.590;9.922;2022-11-20T08:25:14;63.00;;;59.63;;
44728;SDS011;30457;53.590;9.922;2022-11-20T08:29:40;59.80;;;56.30;;
44728;SDS011;30457;53.590;9.922;2022-11-20T08:34:05;61.42;;;58.22;;
44728;SDS011;30457;53.590;9.922;2022-11-20T08:38:31;58.97;;;55.83;;
44728;SDS011;30457;53.590;9.922;2022-11-20T08:42:57;62.55;;;58.97;;
44728;SDS011;30457;53.590;9.922;2022-11-20T08:47:23;59.97;;;56.90;;
44728;SDS011;30457;53.590;9.922;2022-11-20T08:51:48;60.03;;;56.85;;
44728;SDS011;30457;53.590;9.922;2022-11-20T08:56:17;62.08;;;58.78;;
44728;SDS011;30457;53.590;9.922;2022-11-20T09:00:42;56.90;;;53.95;;
44728;SDS011;30457;53.590;9.922;2022-11-20T09:05:08;57.17;;;54.17;;
44728;SDS011;30457;53.590;9.922;2022-11-20T09:09:34;61.05;;;57.90;;
44728;SDS011;30457;53.590;9.922;2022-11-20T09:13:59;64.55;;;61.22;;
44728;SDS011;30457;53.590;9.922;2022-11-20T09:18:27;63.03;;;59.80;;
44728;SDS011;30457;53.590;9.922;2022-11-20T09:22:53;61.40;;;58.25;;
44728;SDS011;30457;53.590;9.922;2022-11-20T09:27:19;62.53;;;59.30;;
44728;SDS011;30457;53.590;9.922;2022-11-20T09:31:48;59.42;;;56.40;;
44728;SDS011;30457;53.590;9.922;2022-11-20T09:36:13;60.47;;;57.35;;
44728;SDS011;30457;53.590;9.922;2022-11-20T09:40:43;62.40;;;59.00;;
44728;SDS011;30457;53.590;9.922;2022-11-20T09:45:21;70.57;;;66.95;;
44728;SDS011;30457;53.590;9.922;2022-11-20T09:50:19;67.70;;;64.10;;
44728;SDS011;30457;53.590;9.922;2022-11-20T09:55:01;61.00;;;57.85;;
44728;SDS011;30457;53.590;9.922;2022-11-20T09:59:33;58.08;;;55.10;;
44728;SDS011;30457;53.590;9.922;2022-11-20T10:13:44;62.05;;;58.78;;
44728;SDS011;30457;53.590;9.922;2022-11-20T10:23:16;65.32;;;61.85;;
44728;SDS011;30457;53.590;9.922;2022-11-20T10:28:06;63.63;;;60.30;;
44728;SDS011;30457;53.590;9.922;2022-11-20T10:32:48;61.85;;;58.65;;
44728;SDS011;30457;53.590;9.922;2022-11-20T10:37:21;63.42;;;60.15;;
44728;SDS011;30457;53.590;9.922;2022-11-20T10:41:50;65.50;;;62.00;;
44728;SDS011;30457;53.590;9.922;2022-11-20T10:46:21;66.22;;;62.88;;
44728;SDS011;30457;53.590;9.922;2022-11-20T10:50:59;66.22;;;62.83;;
44728;SDS011;30457;53.590;9.922;2022-11-20T10:55:50;65.88;;;62.42;;
44728;SDS011;30457;53.590;9.922;2022-11-20T11:00:32;66.40;;;62.88;;
44728;SDS011;30457;53.590;9.922;2022-11-20T11:04:58;62.85;;;59.65;;
44728;SDS011;30457;53.590;9.922;2022-11-20T11:09:35;64.57;;;61.28;;
44728;SDS011;30457;53.590;9.922;2022-11-20T11:14:14;63.72;;;60.53;;
44728;SDS011;30457;53.590;9.922;2022-11-20T11:18:40;62.22;;;58.97;;
44728;SDS011;30457;53.590;9.922;2022-11-20T11:23:10;59.08;;;55.88;;
44728;SDS011;30457;53.590;9.922;2022-11-20T11:27:58;60.65;;;57.53;;
44728;SDS011;30457;53.590;9.922;2022-11-20T11:32:25;65.38;;;61.88;;
44728;SDS011;30457;53.590;9.922;2022-11-20T11:36:55;62.85;;;59.60;;
44728;SDS011;30457;53.590;9.922;2022-11-20T11:41:23;68.60;;;64.80;;
44728;SDS011;30457;53.590;9.922;2022-11-20T11:45:53;63.42;;;60.22;;
44728;SDS011;30457;53.590;9.922;2022-11-20T11:50:24;64.05;;;60.75;;
44728;SDS011;30457;53.590;9.922;2022-11-20T11:59:41;63.85;;;60.63;;
44728;SDS011;30457;53.590;9.922;2022-11-20T12:04:37;63.25;;;60.10;;
44728;SDS011;30457;53.590;9.922;2022-11-20T12:09:09;60.35;;;57.38;;
44728;SDS011;30457;53.590;9.922;2022-11-20T12:13:44;66.40;;;63.00;;
44728;SDS011;30457;53.590;9.922;2022-11-20T12:18:21;61.47;;;58.25;;
44728;SDS011;30457;53.590;9.922;2022-11-20T12:22:54;68.35;;;64.43;;
44728;SDS011;30457;53.590;9.922;2022-11-20T12:36:42;60.65;;;57.53;;
44728;SDS011;30457;53.590;9.922;2022-11-20T12:46:30;61.58;;;58.33;;
44728;SDS011;30457;53.590;9.922;2022-11-20T12:51:12;59.38;;;56.38;;
44728;SDS011;30457;53.590;9.922;2022-11-20T13:00:57;60.83;;;57.80;;
44728;SDS011;30457;53.590;9.922;2022-11-20T13:09:57;61.50;;;58.45;;
44728;SDS011;30457;53.590;9.922;2022-11-20T13:14:38;59.28;;;56.28;;
44728;SDS011;30457;53.590;9.922;2022-11-20T13:19:11;65.65;;;62.30;;
44728;SDS011;30457;53.590;9.922;2022-11-20T13:23:39;61.03;;;58.00;;
44728;SDS011;30457;53.590;9.922;2022-11-20T13:28:25;66.63;;;63.25;;
44728;SDS011;30457;53.590;9.922;2022-11-20T13:33:00;64.15;;;60.92;;
44728;SDS011;30457;53.590;9.922;2022-11-20T13:37:34;66.07;;;62.78;;
44728;SDS011;30457;53.590;9.922;2022-11-20T13:42:02;63.83;;;60.65;;
44728;SDS011;30457;53.590;9.922;2022-11-20T13:46:48;59.53;;;56.50;;
44728;SDS011;30457;53.590;9.922;2022-11-20T13:55:59;59.60;;;56.53;;
44728;SDS011;30457;53.590;9.922;2022-11-20T14:00:30;63.72;;;60.53;;
44728;SDS011;30457;53.590;9.922;2022-11-20T14:04:59;60.50;;;57.25;;
44728;SDS011;30457;53.590;9.922;2022-11-20T14:09:28;60.08;;;56.83;;
44728;SDS011;30457;53.590;9.922;2022-11-20T14:14:02;64.38;;;61.03;;
44728;SDS011;30457;53.590;9.922;2022-11-20T14:18:40;66.03;;;62.72;;
44728;SDS011;30457;53.590;9.922;2022-11-20T14:23:07;65.47;;;62.13;;
44728;SDS011;30457;53.590;9.922;2022-11-20T14:27:36;66.60;;;63.28;;
44728;SDS011;30457;53.590;9.922;2022-11-20T14:32:03;65.65;;;62.33;;
44728;SDS011;30457;53.590;9.922;2022-11-20T14:36:30;67.50;;;64.20;;
44728;SDS011;30457;53.590;9.922;2022-11-20T14:41:05;64.45;;;61.10;;
44728;SDS011;30457;53.590;9.922;2022-11-20T14:45:32;62.35;;;59.15;;
44728;SDS011;30457;53.590;9.922;2022-11-20T14:49:58;63.25;;;60.05;;
44728;SDS011;30457;53.590;9.922;2022-11-20T14:54:26;73.50;;;68.10;;
44728;SDS011;30457;53.590;9.922;2022-11-20T14:58:59;76.40;;;70.30;;
44728;SDS011;30457;53.590;9.922;2022-11-20T15:03:38;65.35;;;61.28;;
44728;SDS011;30457;53.590;9.922;2022-11-20T15:08:06;62.47;;;59.00;;
44728;SDS011;30457;53.590;9.922;2022-11-20T15:12:34;63.30;;;59.88;;
44728;SDS011;30457;53.590;9.922;2022-11-20T15:17:03;59.17;;;56.15;;
44728;SDS011;30457;53.590;9.922;2022-11-20T15:21:29;62.88;;;59.63;;
44728;SDS011;30457;53.590;9.922;2022-11-20T15:25:55;66.97;;;63.55;;
44728;SDS011;30457;53.590;9.922;2022-11-20T15:30:21;64.68;;;61.33;;
44728;SDS011;30457;53.590;9.922;2022-11-20T15:34:47;65.10;;;61.65;;
44728;SDS011;30457;53.590;9.922;2022-11-20T15:39:12;65.38;;;62.03;;
44728;SDS011;30457;53.590;9.922;2022-11-20T15:43:38;63.65;;;60.08;;
44728;SDS011;30457;53.590;9.922;2022-11-20T15:48:04;64.45;;;61.10;;
44728;SDS011;30457;53.590;9.922;2022-11-20T15:52:33;67.30;;;63.83;;
44728;SDS011;30457;53.590;9.922;2022-11-20T15:56:59;65.55;;;62.15;;
44728;SDS011;30457;53.590;9.922;2022-11-20T16:01:25;66.75;;;63.33;;
44728;SDS011;30457;53.590;9.922;2022-11-20T16:05:51;69.40;;;65.60;;
44728;SDS011;30457;53.590;9.922;2022-11-20T16:10:17;66.25;;;62.88;;
44728;SDS011;30457;53.590;9.922;2022-11-20T16:14:43;70.22;;;66.43;;
44728;SDS011;30457;53.590;9.922;2022-11-20T16:19:27;65.93;;;62.30;;
44728;SDS011;30457;53.590;9.922;2022-11-20T16:23:53;65.65;;;62.22;;
44728;SDS011;30457;53.590;9.922;2022-11-20T16:28:18;69.75;;;65.97;;
44728;SDS011;30457;53.590;9.922;2022-11-20T16:32:44;68.03;;;64.47;;
44728;SDS011;30457;53.590;9.922;2022-11-20T16:37:10;69.43;;;65.78;;
44728;SDS011;30457;53.590;9.922;2022-11-20T16:41:35;65.30;;;61.85;;
44728;SDS011;30457;53.590;9.922;2022-11-20T16:46:03;66.25;;;62.75;;
44728;SDS011;30457;53.590;9.922;2022-11-20T16:50:29;70.97;;;67.25;;
44728;SDS011;30457;53.590;9.922;2022-11-20T16:54:54;69.95;;;66.35;;
44728;SDS011;30457;53.590;9.922;2022-11-20T16:59:20;73.43;;;69.63;;
44728;SDS011;30457;53.590;9.922;2022-11-20T17:03:46;66.68;;;63.15;;
44728;SDS011;30457;53.590;9.922;2022-11-20T17:08:18;63.30;;;59.97;;
44728;SDS011;30457;53.590;9.922;2022-11-20T17:12:44;67.40;;;63.80;;
44728;SDS011;30457;53.590;9.922;2022-11-20T17:17:09;69.10;;;65.05;;
44728;SDS011;30457;53.590;9.922;2022-11-20T17:21:35;69.38;;;65.63;;
44728;SDS011;30457;53.590;9.922;2022-11-20T17:26:02;64.20;;;60.85;;
44728;SDS011;30457;53.590;9.922;2022-11-20T17:30:29;68.32;;;64.60;;
44728;SDS011;30457;53.590;9.922;2022-11-20T17:34:55;70.93;;;66.75;;
44728;SDS011;30457;53.590;9.922;2022-11-20T17:39:22;68.55;;;64.65;;
44728;SDS011;30457;53.590;9.922;2022-11-20T17:43:48;72.57;;;68.68;;
44728;SDS011;30457;53.590;9.922;2022-11-20T17:48:16;66.22;;;62.58;;
44728;SDS011;30457;53.590;9.922;2022-11-20T17:52:42;75.30;;;71.20;;
44728;SDS011;30457;53.590;9.922;2022-11-20T17:57:07;72.60;;;68.43;;
44728;SDS011;30457;53.590;9.922;2022-11-20T18:01:52;71.57;;;67.50;;
44728;SDS011;30457;53.590;9.922;2022-11-20T18:06:19;70.50;;;66.45;;
44728;SDS011;30457;53.590;9.922;2022-11-20T18:10:46;69.65;;;65.72;;
44728;SDS011;30457;53.590;9.922;2022-11-20T18:15:12;70.32;;;66.28;;
44728;SDS011;30457;53.590;9.922;2022-11-20T18:19:39;68.45;;;64.65;;
44728;SDS011;30457;53.590;9.922;2022-11-20T18:24:09;69.28;;;65.40;;
44728;SDS011;30457;53.590;9.922;2022-11-20T18:28:36;71.22;;;66.97;;
44728;SDS011;30457;53.590;9.922;2022-11-20T18:33:03;70.50;;;66.45;;
44728;SDS011;30457;53.590;9.922;2022-11-20T18:37:30;67.20;;;63.40;;
44728;SDS011;30457;53.590;9.922;2022-11-20T18:41:56;73.30;;;68.82;;
44728;SDS011;30457;53.590;9.922;2022-11-20T18:46:40;67.97;;;64.05;;
44728;SDS011;30457;53.590;9.922;2022-11-20T18:51:06;74.30;;;69.63;;
44728;SDS011;30457;53.590;9.922;2022-11-20T18:55:32;73.72;;;69.53;;
44728;SDS011;30457;53.590;9.922;2022-11-20T18:59:59;72.45;;;68.25;;
44728;SDS011;30457;53.590;9.922;2022-11-20T19:04:25;71.75;;;67.40;;
44728;SDS011;30457;53.590;9.922;2022-11-20T19:08:52;76.00;;;71.35;;
44728;SDS011;30457;53.590;9.922;2022-11-20T19:13:17;81.00;;;75.93;;
44728;SDS011;30457;53.590;9.922;2022-11-20T19:17:43;73.95;;;69.05;;
44728;SDS011;30457;53.590;9.922;2022-11-20T19:22:09;77.80;;;72.60;;
44728;SDS011;30457;53.590;9.922;2022-11-20T19:26:35;78.03;;;73.07;;
44728;SDS011;30457;53.590;9.922;2022-11-20T19:31:05;78.28;;;73.20;;
44728;SDS011;30457;53.590;9.922;2022-11-20T19:35:32;79.43;;;74.72;;
44728;SDS011;30457;53.590;9.922;2022-11-20T19:40:00;73.78;;;68.88;;
44728;SDS011;30457;53.590;9.922;2022-11-20T19:44:28;74.63;;;69.30;;
44728;SDS011;30457;53.590;9.922;2022-11-20T19:48:54;76.63;;;71.78;;
44728;SDS011;30457;53.590;9.922;2022-11-20T19:53:20;77.75;;;73.00;;
44728;SDS011;30457;53.590;9.922;2022-11-20T19:57:46;77.00;;;72.13;;
44728;SDS011;30457;53.590;9.922;2022-11-20T20:02:11;75.93;;;71.18;;
44728;SDS011;30457;53.590;9.922;2022-11-20T20:06:37;76.47;;;71.47;;
44728;SDS011;30457;53.590;9.922;2022-11-20T20:11:08;75.63;;;70.80;;
44728;SDS011;30457;53.590;9.922;2022-11-20T20:15:44;82.82;;;77.55;;
44728;SDS011;30457;53.590;9.922;2022-11-20T20:20:09;75.13;;;70.32;;
44728;SDS011;30457;53.590;9.922;2022-11-20T20:24:35;73.90;;;69.07;;
44728;SDS011;30457;53.590;9.922;2022-11-20T20:29:01;74.88;;;70.18;;
44728;SDS011;30457;53.590;9.922;2022-11-20T20:33:26;83.50;;;78.07;;
44728;SDS011;30457;53.590;9.922;2022-11-20T20:37:53;75.20;;;70.13;;
44728;SDS011;30457;53.590;9.922;2022-11-20T20:42:19;76.75;;;71.57;;
44728;SDS011;30457;53.590;9.922;2022-11-20T20:46:44;74.15;;;69.35;;
44728;SDS011;30457;53.590;9.922;2022-11-20T20:51:10;73.75;;;68.85;;
44728;SDS011;30457;53.590;9.922;2022-11-20T20:55:35;78.13;;;73.00;;
44728;SDS011;30457;53.590;9.922;2022-11-20T21:00:01;74.40;;;69.50;;
44728;SDS011;30457;53.590;9.922;2022-11-20T21:04:29;73.28;;;68.47;;
44728;SDS011;30457;53.590;9.922;2022-11-20T21:08:55;72.93;;;68.05;;
44728;SDS011;30457;53.590;9.922;2022-11-20T21:13:22;78.47;;;73.60;;
44728;SDS011;30457;53.590;9.922;2022-11-20T21:17:48;76.20;;;71.43;;
44728;SDS011;30457;53.590;9.922;2022-11-20T21:22:13;78.15;;;73.35;;
44728;SDS011;30457;53.590;9.922;2022-11-20T21:26:39;73.65;;;69.00;;
44728;SDS011;30457;53.590;9.922;2022-11-20T21:31:08;75.80;;;70.97;;
44728;SDS011;30457;53.590;9.922;2022-11-20T21:35:46;75.93;;;70.95;;
44728;SDS011;30457;53.590;9.922;2022-11-20T21:40:11;73.90;;;69.13;;
44728;SDS011;30457;53.590;9.922;2022-11-20T21:44:37;68.30;;;64.03;;
44728;SDS011;30457;53.590;9.922;2022-11-20T21:49:02;76.25;;;71.38;;
44728;SDS011;30457;53.590;9.922;2022-11-20T21:53:28;71.32;;;66.82;;
44728;SDS011;30457;53.590;9.922;2022-11-20T21:57:54;66.80;;;62.67;;
44728;SDS011;30457;53.590;9.922;2022-11-20T22:02:19;69.60;;;65.15;;
44728;SDS011;30457;53.590;9.922;2022-11-20T22:06:45;73.05;;;68.28;;
44728;SDS011;30457;53.590;9.922;2022-11-20T22:11:12;73.57;;;68.53;;
44728;SDS011;30457;53.590;9.922;2022-11-20T22:15:40;71.60;;;66.57;;
44728;SDS011;30457;53.590;9.922;2022-11-20T22:20:06;70.15;;;65.32;;
44728;SDS011;30457;53.590;9.922;2022-11-20T22:24:33;67.72;;;63.05;;
44728;SDS011;30457;53.590;9.922;2022-11-20T22:28:58;70.43;;;65.68;;
44728;SDS011;30457;53.590;9.922;2022-11-20T22:33:25;71.32;;;66.63;;
44728;SDS011;30457;53.590;9.922;2022-11-20T22:37:51;76.10;;;70.80;;
44728;SDS011;30457;53.590;9.922;2022-11-20T22:42:17;76.22;;;71.05;;
44728;SDS011;30457;53.590;9.922;2022-11-20T22:46:42;71.65;;;66.60;;
44728;SDS011;30457;53.590;9.922;2022-11-20T22:51:12;72.53;;;67.45;;
44728;SDS011;30457;53.590;9.922;2022-11-20T22:55:39;69.85;;;65.10;;
44728;SDS011;30457;53.590;9.922;2022-11-20T23:00:04;70.35;;;65.45;;
44728;SDS011;30457;53.590;9.922;2022-11-20T23:04:32;69.07;;;64.28;;
44728;SDS011;30457;53.590;9.922;2022-11-20T23:08:58;68.72;;;64.22;;
44728;SDS011;30457;53.590;9.922;2022-11-20T23:13:24;72.82;;;67.45;;
44728;SDS011;30457;53.590;9.922;2022-11-20T23:17:49;72.38;;;67.07;;
44728;SDS011;30457;53.590;9.922;2022-11-20T23:22:15;68.10;;;63.63;;
44728;SDS011;30457;53.590;9.922;2022-11-20T23:26:40;70.28;;;65.50;;
44728;SDS011;30457;53.590;9.922;2022-11-20T23:31:06;69.13;;;64.50;;
44728;SDS011;30457;53.590;9.922;2022-11-20T23:35:36;68.95;;;64.35;;
44728;SDS011;30457;53.590;9.922;2022-11-20T23:40:03;67.90;;;63.10;;
44728;SDS011;30457;53.590;9.922;2022-11-20T23:44:29;66.72;;;62.30;;
44728;SDS011;30457;53.590;9.922;2022-11-20T23:48:56;70.03;;;65.22;;
44728;SDS011;30457;53.590;9.922;2022-11-20T23:53:21;72.55;;;67.55;;
44728;SDS011;30457;53.590;9.922;2022-11-20T23:57:48;67.03;;;62.50;;
